createdAt,value
2023-01-19T00:00:46.306Z,3.80
2023-01-19T00:03:16.313Z,3.80
2023-01-19T00:05:44.864Z,6.10
2023-01-19T00:08:15.896Z,3.90
2023-01-19T00:10:51.540Z,4.10
2023-01-19T00:13:18.866Z,3.90
2023-01-19T00:15:46.160Z,3.90
2023-01-19T00:18:39.294Z,3.90
2023-01-19T00:21:09.250Z,3.90
2023-01-19T00:23:36.193Z,3.90
2023-01-19T00:26:06.780Z,3.90
2023-01-19T00:28:33.743Z,3.90
2023-01-19T00:31:00.945Z,4.60
2023-01-19T00:33:28.415Z,6.20
2023-01-19T00:35:56.095Z,4.00
2023-01-19T00:38:23.222Z,4.00
2023-01-19T00:40:50.490Z,4.00
2023-01-19T00:43:17.735Z,6.00
2023-01-19T00:45:46.113Z,4.10
2023-01-19T00:48:13.282Z,4.70
2023-01-19T00:50:40.213Z,6.10
2023-01-19T00:53:07.202Z,4.20
2023-01-19T00:55:34.172Z,4.20
2023-01-19T00:58:01.231Z,6.40
2023-01-19T01:00:28.195Z,4.20
2023-01-19T01:02:55.830Z,4.60
2023-01-19T01:05:23.311Z,4.20
2023-01-19T01:07:50.960Z,4.20
2023-01-19T01:10:23.919Z,4.20
2023-01-19T01:12:54.934Z,5.40
2023-01-19T01:15:26.518Z,4.20
2023-01-19T01:17:53.887Z,6.20
2023-01-19T01:20:27.177Z,4.20
2023-01-19T01:22:55.751Z,4.20
2023-01-19T01:25:26.630Z,4.10
2023-01-19T01:27:54.444Z,4.20
2023-01-19T01:30:22.657Z,4.10
2023-01-19T01:32:50.466Z,5.80
2023-01-19T01:35:18.107Z,4.20
2023-01-19T01:37:45.161Z,4.20
2023-01-19T01:40:15.671Z,5.70
2023-01-19T01:42:43.613Z,4.30
2023-01-19T01:45:35.304Z,6.10
2023-01-19T01:48:27.016Z,4.40
2023-01-19T01:51:24.423Z,4.40
2023-01-19T01:54:18.157Z,4.40
2023-01-19T01:56:52.704Z,4.40
2023-01-19T01:59:29.621Z,4.40
2023-01-19T02:02:19.444Z,4.50
2023-01-19T02:05:04.231Z,4.50
2023-01-19T02:08:09.586Z,6.80
2023-01-19T02:10:56.067Z,4.50
2023-01-19T02:13:25.501Z,4.80
2023-01-19T02:15:56.236Z,5.00
2023-01-19T02:18:28.537Z,5.50
2023-01-19T02:21:25.427Z,4.60
2023-01-19T02:23:58.932Z,4.60
2023-01-19T02:26:36.691Z,4.60
2023-01-19T02:29:09.830Z,4.50
2023-01-19T02:31:39.743Z,4.60
2023-01-19T02:34:12.240Z,4.50
2023-01-19T02:37:00.227Z,6.10
2023-01-19T02:39:51.366Z,4.40
2023-01-19T02:42:53.187Z,6.00
2023-01-19T02:45:22.743Z,4.40
2023-01-19T02:47:52.771Z,5.00
2023-01-19T02:50:57.300Z,4.30
2023-01-19T02:53:48.701Z,4.20
2023-01-19T02:56:59.902Z,6.70
2023-01-19T02:59:48.677Z,4.10
2023-01-19T03:02:32.002Z,4.10
2023-01-19T03:05:29.528Z,4.00
2023-01-19T03:08:19.996Z,3.90
2023-01-19T03:11:10.333Z,3.80
2023-01-19T03:14:04.034Z,3.80
2023-01-19T03:16:55.323Z,3.70
2023-01-19T03:19:28.562Z,3.60
2023-01-19T03:22:02.703Z,3.60
2023-01-19T03:24:37.954Z,3.50
2023-01-19T03:27:18.520Z,3.50
2023-01-19T03:29:52.954Z,3.50
2023-01-19T03:32:29.708Z,3.40
2023-01-19T03:35:03.350Z,3.40
2023-01-19T03:37:33.728Z,3.40
2023-01-19T03:40:00.952Z,3.30
2023-01-19T03:42:29.139Z,3.30
2023-01-19T03:44:59.866Z,3.30
2023-01-19T03:47:27.911Z,3.20
2023-01-19T03:49:58.252Z,5.80
2023-01-19T03:52:33.603Z,3.20
2023-01-19T03:55:04.430Z,3.20
2023-01-19T03:57:32.408Z,3.20
2023-01-19T03:59:59.354Z,3.20
2023-01-19T04:02:26.554Z,3.20
2023-01-19T04:04:53.585Z,5.10
2023-01-19T04:07:20.592Z,3.10
2023-01-19T04:12:15.618Z,3.10
2023-01-19T04:14:42.807Z,3.10
2023-01-19T04:17:10.415Z,5.60
2023-01-19T04:19:37.364Z,4.70
2023-01-19T04:22:04.842Z,3.10
2023-01-19T04:24:31.813Z,5.00
2023-01-19T04:26:59.169Z,4.90
2023-01-19T04:29:26.456Z,3.10
2023-01-19T04:31:53.300Z,3.10
2023-01-19T04:34:20.378Z,4.30
2023-01-19T04:36:50.971Z,3.10
2023-01-19T04:39:18.165Z,3.10
2023-01-19T04:41:45.208Z,3.10
2023-01-19T04:44:12.364Z,3.10
2023-01-19T04:46:39.379Z,3.10
2023-01-19T04:49:06.445Z,3.10
2023-01-19T04:51:34.346Z,5.50
2023-01-19T04:54:02.388Z,3.10
2023-01-19T04:56:29.725Z,3.50
2023-01-19T04:58:56.892Z,3.10
2023-01-19T05:01:24.317Z,3.10
2023-01-19T05:03:52.230Z,3.10
2023-01-19T05:06:19.363Z,5.10
2023-01-19T05:08:46.342Z,5.50
2023-01-19T05:11:13.378Z,5.20
2023-01-19T05:13:40.417Z,2.40
2023-01-19T05:16:08.031Z,3.10
2023-01-19T05:18:37.013Z,3.10
2023-01-19T05:21:05.111Z,3.10
2023-01-19T05:23:32.792Z,3.10
2023-01-19T05:26:03.035Z,3.20
2023-01-19T05:28:32.327Z,3.10
2023-01-19T05:30:59.353Z,3.10
2023-01-19T05:33:26.722Z,3.10
2023-01-19T05:35:54.592Z,5.80
2023-01-19T05:38:34.267Z,5.30
2023-01-19T05:41:02.679Z,3.10
2023-01-19T05:43:29.559Z,3.20
2023-01-19T05:45:56.635Z,1.80
2023-01-19T05:48:23.603Z,3.20
2023-01-19T05:50:51.424Z,3.00
2023-01-19T05:53:18.868Z,3.00
2023-01-19T05:55:45.784Z,3.10
2023-01-19T06:00:40.339Z,3.10
2023-01-19T06:03:07.525Z,3.20
2023-01-19T06:05:35.554Z,3.10
2023-01-19T06:08:02.470Z,3.10
2023-01-19T06:10:29.525Z,3.10
2023-01-19T06:12:56.462Z,3.10
2023-01-19T06:15:23.417Z,3.20
2023-01-19T06:17:50.402Z,5.20
2023-01-19T06:20:17.512Z,3.10
2023-01-19T06:22:44.533Z,4.20
2023-01-19T06:25:11.991Z,4.80
2023-01-19T06:30:12.180Z,3.10
2023-01-19T06:32:39.160Z,3.20
2023-01-19T06:35:07.881Z,3.20
2023-01-19T06:37:36.095Z,3.10
2023-01-19T06:40:03.924Z,4.50
2023-01-19T06:42:31.306Z,3.20
2023-01-19T06:44:58.631Z,3.20
2023-01-19T06:47:25.554Z,3.20
2023-01-19T06:49:52.549Z,3.20
2023-01-19T06:52:20.530Z,3.20
2023-01-19T06:54:47.845Z,3.20
2023-01-19T06:57:17.484Z,3.20
2023-01-19T06:59:45.392Z,4.90
2023-01-19T07:02:26.529Z,5.10
2023-01-19T07:04:56.554Z,5.20
2023-01-19T07:07:23.420Z,3.20
2023-01-19T07:09:53.779Z,3.20
2023-01-19T07:12:22.704Z,3.20
2023-01-19T07:17:17.551Z,3.20
2023-01-19T07:19:45.264Z,3.20
2023-01-19T07:22:12.170Z,3.20
2023-01-19T07:24:39.329Z,4.50
2023-01-19T07:27:06.398Z,3.30
2023-01-19T07:29:33.336Z,5.80
2023-01-19T07:32:00.282Z,3.20
2023-01-19T07:34:27.270Z,3.30
2023-01-19T07:36:56.312Z,3.30
2023-01-19T07:39:23.350Z,3.30
2023-01-19T07:41:50.774Z,3.40
2023-01-19T07:44:18.404Z,3.40
2023-01-19T07:46:45.357Z,3.30
2023-01-19T07:49:12.692Z,3.40
2023-01-19T07:51:39.625Z,3.40
2023-01-19T07:54:08.457Z,5.00
2023-01-19T07:56:35.837Z,4.80
2023-01-19T07:59:02.839Z,4.40
2023-01-19T08:01:31.484Z,3.30
2023-01-19T08:03:58.569Z,3.30
2023-01-19T08:06:35.268Z,3.30
2023-01-19T08:09:05.480Z,3.40
2023-01-19T08:11:33.150Z,3.40
2023-01-19T08:14:00.887Z,3.40
2023-01-19T08:16:28.676Z,3.30
2023-01-19T08:18:55.692Z,3.40
2023-01-19T08:21:22.750Z,3.40
2023-01-19T08:23:57.381Z,3.40
2023-01-19T08:26:32.462Z,3.40
2023-01-19T08:29:03.758Z,3.40
2023-01-19T08:31:31.222Z,3.40
2023-01-19T08:33:58.786Z,3.40
2023-01-19T08:36:26.350Z,5.50
2023-01-19T08:38:53.780Z,5.90
2023-01-19T08:41:20.907Z,3.40
2023-01-19T08:43:49.219Z,3.40
2023-01-19T08:46:17.690Z,3.70
2023-01-19T08:48:51.145Z,3.40
2023-01-19T08:51:18.518Z,5.50
2023-01-19T08:53:45.572Z,3.50
2023-01-19T08:56:14.348Z,4.80
2023-01-19T08:58:51.191Z,3.50
2023-01-19T09:01:24.019Z,3.60
2023-01-19T09:03:52.005Z,3.60
2023-01-19T09:06:19.299Z,3.60
2023-01-19T09:08:47.795Z,6.00
2023-01-19T09:11:17.442Z,3.60
2023-01-19T09:13:45.102Z,3.70
2023-01-19T09:16:13.490Z,3.70
2023-01-19T09:18:40.724Z,3.70
2023-01-19T09:21:08.403Z,3.80
2023-01-19T09:23:35.411Z,3.80
2023-01-19T09:26:04.943Z,3.80
2023-01-19T09:28:33.006Z,3.80
2023-01-19T09:31:00.130Z,3.80
2023-01-19T09:33:27.742Z,3.80
2023-01-19T09:35:54.663Z,3.80
2023-01-19T09:38:22.519Z,3.80
2023-01-19T09:40:56.293Z,3.80
2023-01-19T09:43:54.677Z,3.80
2023-01-19T09:46:39.837Z,3.80
2023-01-19T09:49:20.661Z,3.80
2023-01-19T09:51:51.074Z,3.80
2023-01-19T09:54:41.107Z,3.80
2023-01-19T09:57:14.837Z,3.80
2023-01-19T09:59:47.794Z,3.80
2023-01-19T10:02:37.638Z,6.30
2023-01-19T10:06:01.141Z,3.90
2023-01-19T10:08:49.956Z,3.90
2023-01-19T10:11:52.675Z,3.90
2023-01-19T10:14:48.439Z,3.90
2023-01-19T10:17:43.610Z,5.80
2023-01-19T10:20:27.093Z,4.00
2023-01-19T10:22:57.261Z,4.00
2023-01-19T10:25:25.004Z,4.00
2023-01-19T10:27:52.076Z,4.00
2023-01-19T10:30:26.448Z,4.10
2023-01-19T10:32:53.780Z,4.10
2023-01-19T10:35:25.150Z,4.20
2023-01-19T10:38:00.087Z,6.10
2023-01-19T10:40:52.201Z,4.30
2023-01-19T10:43:44.756Z,4.30
2023-01-19T10:46:33.436Z,4.30
2023-01-19T10:49:00.910Z,4.40
2023-01-19T10:51:28.093Z,3.80
2023-01-19T10:54:04.234Z,4.40
2023-01-19T10:56:38.489Z,4.40
2023-01-19T10:59:10.402Z,4.40
2023-01-19T11:01:38.074Z,4.50
2023-01-19T11:04:27.247Z,4.50
2023-01-19T11:07:27.109Z,4.60
2023-01-19T11:10:20.779Z,4.60
2023-01-19T11:13:15.710Z,4.70
2023-01-19T11:16:20.640Z,4.70
2023-01-19T11:18:54.073Z,4.70
2023-01-19T11:21:26.528Z,4.80
2023-01-19T11:23:58.766Z,4.80
2023-01-19T11:26:40.718Z,4.70
2023-01-19T11:29:21.582Z,4.70
2023-01-19T11:31:50.549Z,6.90
2023-01-19T11:34:34.811Z,4.70
2023-01-19T11:37:19.964Z,4.70
2023-01-19T11:39:55.074Z,4.80
2023-01-19T11:42:23.381Z,4.80
2023-01-19T11:45:07.441Z,4.80
2023-01-19T11:47:49.179Z,4.90
2023-01-19T11:50:33.465Z,4.90
2023-01-19T11:53:14.619Z,6.00
2023-01-19T11:55:59.012Z,5.50
2023-01-19T11:58:27.397Z,7.30
2023-01-19T12:01:07.922Z,5.20
2023-01-19T12:03:43.116Z,5.20
2023-01-19T12:06:14.200Z,5.40
2023-01-19T12:09:10.579Z,5.30
2023-01-19T12:11:47.776Z,5.30
2023-01-19T12:14:27.279Z,5.30
2023-01-19T12:17:00.053Z,5.30
2023-01-19T12:19:54.897Z,5.30
2023-01-19T12:22:24.049Z,5.30
2023-01-19T12:25:11.995Z,5.40
2023-01-19T12:27:45.481Z,6.90
2023-01-19T12:30:27.995Z,5.20
2023-01-19T12:33:37.588Z,5.30
2023-01-19T12:36:17.335Z,5.30
2023-01-19T12:38:55.758Z,5.30
2023-01-19T12:41:31.818Z,5.40
2023-01-19T12:44:11.120Z,7.80
2023-01-19T12:47:07.572Z,5.50
2023-01-19T12:49:39.398Z,5.50
2023-01-19T12:52:51.556Z,5.50
2023-01-19T12:55:39.106Z,5.60
2023-01-19T12:58:23.781Z,5.60
2023-01-19T13:01:21.280Z,5.60
2023-01-19T13:04:09.720Z,5.70
2023-01-19T13:06:48.971Z,5.70
2023-01-19T13:09:33.962Z,5.70
2023-01-19T13:12:24.640Z,5.70
2023-01-19T13:15:29.248Z,5.70
2023-01-19T13:17:57.027Z,5.70
2023-01-19T13:20:43.437Z,5.60
2023-01-19T13:23:19.758Z,5.60
2023-01-19T13:25:58.788Z,5.60
2023-01-19T13:28:35.902Z,7.40
2023-01-19T13:31:03.874Z,7.10
2023-01-19T13:33:48.437Z,5.60
2023-01-19T13:36:26.934Z,5.50
2023-01-19T13:38:56.922Z,5.50
2023-01-19T13:41:29.371Z,5.50
2023-01-19T13:44:08.548Z,5.50
2023-01-19T13:46:38.682Z,5.50
2023-01-19T13:49:35.574Z,7.60
2023-01-19T13:52:26.074Z,5.50
2023-01-19T13:55:02.461Z,5.50
2023-01-19T13:57:39.466Z,7.80
2023-01-19T14:00:11.965Z,5.40
2023-01-19T14:02:59.349Z,5.40
2023-01-19T14:05:36.258Z,5.40
2023-01-19T14:08:11.054Z,5.40
2023-01-19T14:10:56.529Z,5.40
2023-01-19T14:13:33.899Z,5.40
2023-01-19T14:16:07.765Z,5.30
2023-01-19T14:18:36.513Z,5.30
2023-01-19T14:21:12.007Z,5.30
2023-01-19T14:23:45.692Z,5.30
2023-01-19T14:27:06.399Z,5.30
2023-01-19T14:29:36.175Z,5.30
2023-01-19T14:32:19.712Z,5.30
2023-01-19T14:35:04.136Z,5.20
2023-01-19T14:37:49.587Z,5.20
2023-01-19T14:40:22.494Z,5.20
2023-01-19T14:43:06.570Z,5.20
2023-01-19T14:45:39.386Z,5.20
2023-01-19T14:48:19.228Z,5.10
2023-01-19T14:51:01.926Z,5.10
2023-01-19T14:53:38.284Z,5.10
2023-01-19T14:56:06.818Z,5.10
2023-01-19T14:58:35.685Z,5.10
2023-01-19T15:01:03.665Z,5.00
2023-01-19T15:03:44.023Z,6.40
2023-01-19T15:06:19.915Z,5.00
2023-01-19T15:08:50.022Z,5.00
2023-01-19T15:11:24.546Z,5.00
2023-01-19T15:13:51.925Z,5.00
2023-01-19T15:16:23.754Z,5.00
2023-01-19T15:18:50.799Z,5.00
2023-01-19T15:21:23.132Z,4.90
2023-01-19T15:23:50.378Z,7.00
2023-01-19T15:26:23.367Z,4.80
2023-01-19T15:28:50.981Z,4.80
2023-01-19T15:31:23.700Z,4.70
2023-01-19T15:33:50.920Z,4.70
2023-01-19T15:36:21.752Z,4.60
2023-01-19T15:38:51.180Z,4.50
2023-01-19T15:41:29.993Z,4.50
2023-01-19T15:43:58.823Z,5.60
2023-01-19T15:46:26.517Z,4.40
2023-01-19T15:48:54.261Z,4.40
2023-01-19T15:51:28.583Z,4.40
2023-01-19T15:53:56.545Z,4.40
2023-01-19T15:56:27.217Z,4.30
2023-01-19T15:58:55.298Z,4.30
2023-01-19T16:01:32.662Z,4.20
2023-01-19T16:04:03.178Z,4.20
2023-01-19T16:06:31.271Z,4.20
2023-01-19T16:09:02.067Z,4.20
2023-01-19T16:11:32.710Z,4.20
2023-01-19T16:14:00.058Z,4.20
2023-01-19T16:16:28.190Z,4.10
2023-01-19T16:18:56.693Z,4.40
2023-01-19T16:21:23.930Z,4.00
2023-01-19T16:23:51.591Z,4.00
2023-01-19T16:26:34.551Z,4.00
2023-01-19T16:29:10.815Z,4.00
2023-01-19T16:31:42.822Z,4.00
2023-01-19T16:34:10.168Z,3.90
2023-01-19T16:36:40.481Z,3.90
2023-01-19T16:39:14.806Z,3.90
2023-01-19T16:41:44.822Z,3.90
2023-01-19T16:44:14.607Z,3.80
2023-01-19T16:46:45.945Z,3.80
2023-01-19T16:49:22.403Z,3.70
2023-01-19T16:51:50.726Z,6.40
2023-01-19T16:54:21.823Z,3.80
2023-01-19T16:56:50.564Z,3.60
2023-01-19T16:59:19.176Z,3.60
2023-01-19T17:01:46.221Z,3.50
2023-01-19T17:04:14.404Z,3.40
2023-01-19T17:06:42.133Z,4.10
2023-01-19T17:09:09.687Z,3.20
2023-01-19T17:11:37.855Z,3.20
2023-01-19T17:14:10.809Z,3.00
2023-01-19T17:16:38.057Z,3.00
2023-01-19T17:19:07.900Z,2.90
2023-01-19T17:21:35.522Z,5.30
2023-01-19T17:24:02.409Z,2.80
2023-01-19T17:26:31.170Z,2.70
2023-01-19T17:29:05.413Z,2.60
2023-01-19T17:31:35.399Z,2.60
2023-01-19T17:36:32.658Z,2.50
2023-01-19T17:39:06.293Z,2.40
2023-01-19T17:41:35.393Z,2.40
2023-01-19T17:44:05.022Z,2.30
2023-01-19T17:46:35.760Z,2.30
2023-01-19T17:49:06.326Z,2.20
2023-01-19T17:51:35.179Z,2.20
2023-01-19T17:54:04.110Z,2.20
2023-01-19T17:56:36.683Z,2.20
2023-01-19T17:59:06.470Z,3.40
2023-01-19T18:01:37.856Z,2.10
2023-01-19T18:04:05.931Z,2.10
2023-01-19T18:06:33.723Z,2.10
2023-01-19T18:09:00.683Z,3.70
2023-01-19T18:11:28.441Z,4.60
2023-01-19T18:13:55.789Z,2.00
2023-01-19T18:16:28.846Z,2.00
2023-01-19T18:18:57.513Z,2.00
2023-01-19T18:21:28.177Z,2.00
2023-01-19T18:24:02.219Z,2.00
2023-01-19T18:26:33.360Z,2.00
2023-01-19T18:29:02.129Z,2.00
2023-01-19T18:31:29.850Z,4.10
2023-01-19T18:33:56.895Z,2.00
2023-01-19T18:36:24.278Z,2.10
2023-01-19T18:38:51.981Z,2.10
2023-01-19T18:41:21.933Z,2.40
2023-01-19T18:43:50.065Z,2.10
2023-01-19T18:46:17.585Z,4.10
2023-01-19T18:48:44.884Z,2.10
2023-01-19T18:51:16.135Z,2.20
2023-01-19T18:53:44.937Z,2.20
2023-01-19T18:56:15.807Z,4.10
2023-01-19T18:58:44.389Z,3.30
2023-01-19T19:01:19.388Z,2.20
2023-01-19T19:03:46.902Z,4.70
2023-01-19T19:06:15.650Z,2.20
2023-01-19T19:08:44.077Z,4.90
2023-01-19T19:11:13.937Z,2.10
2023-01-19T19:13:41.733Z,4.00
2023-01-19T19:16:11.847Z,2.10
2023-01-19T19:18:39.976Z,2.10
2023-01-19T19:21:12.088Z,2.10
2023-01-19T19:23:39.913Z,2.00
2023-01-19T19:26:12.184Z,2.10
2023-01-19T19:28:41.058Z,2.10
2023-01-19T19:31:20.598Z,2.10
2023-01-19T19:33:50.856Z,2.10
2023-01-19T19:36:20.189Z,2.10
2023-01-19T19:38:48.707Z,2.10
2023-01-19T19:41:21.800Z,2.10
2023-01-19T19:43:50.618Z,2.10
2023-01-19T19:46:20.493Z,2.10
2023-01-19T19:48:49.705Z,2.00
2023-01-19T19:51:25.432Z,2.30
2023-01-19T19:53:59.268Z,2.00
2023-01-19T19:56:30.887Z,2.00
2023-01-19T19:58:59.379Z,2.00
2023-01-19T20:01:32.882Z,2.00
2023-01-19T20:04:11.271Z,2.00
2023-01-19T20:06:44.941Z,2.00
2023-01-19T20:09:14.266Z,2.00
2023-01-19T20:11:46.764Z,2.00
2023-01-19T20:14:16.289Z,2.00
2023-01-19T20:16:44.292Z,2.00
2023-01-19T20:19:11.635Z,2.00
2023-01-19T20:21:42.732Z,4.00
2023-01-19T20:24:19.867Z,2.40
2023-01-19T20:26:51.809Z,3.40
2023-01-19T20:29:20.207Z,1.90
2023-01-19T20:31:52.163Z,1.90
2023-01-19T20:34:22.702Z,1.90
2023-01-19T20:36:51.564Z,1.90
2023-01-19T20:39:20.425Z,1.90
2023-01-19T20:41:50.871Z,1.90
2023-01-19T20:44:24.234Z,4.40
2023-01-19T20:46:53.173Z,1.80
2023-01-19T20:49:20.508Z,2.10
2023-01-19T20:51:48.413Z,3.50
2023-01-19T20:54:20.413Z,1.80
2023-01-19T20:56:47.635Z,1.80
2023-01-19T20:59:14.636Z,1.80
2023-01-19T21:01:43.105Z,1.80
2023-01-19T21:04:11.622Z,1.80
2023-01-19T21:06:38.898Z,1.70
2023-01-19T21:09:06.998Z,1.80
2023-01-19T21:11:35.202Z,1.80
2023-01-19T21:14:02.274Z,2.70
2023-01-19T21:16:32.731Z,1.90
2023-01-19T21:19:00.108Z,1.90
2023-01-19T21:21:31.643Z,1.90
2023-01-19T21:24:01.668Z,4.20
2023-01-19T21:26:33.359Z,2.10
2023-01-19T21:29:03.240Z,2.20
2023-01-19T21:31:31.363Z,2.30
2023-01-19T21:33:59.228Z,2.40
2023-01-19T21:36:26.832Z,2.40
2023-01-19T21:39:00.135Z,2.50
2023-01-19T21:41:29.833Z,4.70
2023-01-19T21:43:58.489Z,2.60
2023-01-19T21:46:29.210Z,5.10
2023-01-19T21:48:58.837Z,2.60
2023-01-19T21:51:26.644Z,5.10
2023-01-19T21:53:57.028Z,4.80
2023-01-19T21:56:24.041Z,2.20
2023-01-19T21:58:51.061Z,2.70
2023-01-19T22:01:18.153Z,2.80
2023-01-19T22:03:45.365Z,4.50
2023-01-19T22:06:14.553Z,2.80
2023-01-19T22:08:42.146Z,2.80
2023-01-19T22:11:16.037Z,4.20
2023-01-19T22:13:44.123Z,5.40
2023-01-19T22:16:14.801Z,3.80
2023-01-19T22:18:44.400Z,2.80
2023-01-19T22:21:21.405Z,2.90
2023-01-19T22:23:54.601Z,2.90
2023-01-19T22:26:22.246Z,3.00
2023-01-19T22:28:57.438Z,3.00
2023-01-19T22:31:26.165Z,5.70
2023-01-19T22:33:54.507Z,2.90
2023-01-19T22:36:26.628Z,5.50
2023-01-19T22:38:56.986Z,3.00
2023-01-19T22:41:25.228Z,3.10
2023-01-19T22:43:56.594Z,3.10
2023-01-19T22:46:28.677Z,3.10
2023-01-19T22:48:56.149Z,3.10
2023-01-19T22:51:25.102Z,4.00
2023-01-19T22:53:52.642Z,3.20
2023-01-19T22:56:26.932Z,3.20
2023-01-19T22:58:55.331Z,3.20
2023-01-19T23:01:25.963Z,3.20
2023-01-19T23:03:54.990Z,3.20
2023-01-19T23:06:25.685Z,5.30
2023-01-19T23:08:56.393Z,3.20
2023-01-19T23:11:28.045Z,4.20
2023-01-19T23:13:55.487Z,3.20
2023-01-19T23:16:22.489Z,3.20
2023-01-19T23:18:54.467Z,3.20
2023-01-19T23:21:24.840Z,4.70
2023-01-19T23:24:04.400Z,3.70
2023-01-19T23:26:38.159Z,3.20
2023-01-19T23:29:12.793Z,3.20
2023-01-19T23:31:44.812Z,3.20
2023-01-19T23:34:13.294Z,3.20
2023-01-19T23:36:42.887Z,3.10
2023-01-19T23:39:20.260Z,3.20
2023-01-19T23:41:48.504Z,3.10
2023-01-19T23:44:17.013Z,3.10
2023-01-19T23:46:45.034Z,3.10
2023-01-19T23:49:13.267Z,5.70
2023-01-19T23:54:08.897Z,3.10
2023-01-19T23:56:38.752Z,3.10
2023-01-19T23:59:09.735Z,3.10
